sensor_id;sensor_type;location;lat;lon;timestamp;pressure;altitude;pressure_sealevel;temperature;humidity
44309;BME280;30022;55.846;37.340;2022-11-20T00:00:56;46863.09;;;-143.51;20.82
44309;BME280;30022;55.846;37.340;2022-11-20T00:03:22;46855.19;;;-143.51;20.92
44309;BME280;30022;55.846;37.340;2022-11-20T00:05:47;46855.19;;;-143.51;21.37
44309;BME280;30022;55.846;37.340;2022-11-20T00:08:13;46859.13;;;-143.51;21.20
44309;BME280;30022;55.846;37.340;2022-11-20T00:10:39;46872.97;;;-143.51;20.89
44309;BME280;30022;55.846;37.340;2022-11-20T00:13:05;46865.06;;;-143.51;21.49
44309;BME280;30022;55.846;37.340;2022-11-20T00:15:31;46855.19;;;-143.51;20.94
44309;BME280;30022;55.846;37.340;2022-11-20T00:17:57;46859.13;;;-143.51;21.03
44309;BME280;30022;55.846;37.340;2022-11-20T00:20:23;46819.63;;;-143.51;20.93
44309;BME280;30022;55.846;37.340;2022-11-20T00:22:49;46823.59;;;-143.51;20.94
44309;BME280;30022;55.846;37.340;2022-11-20T00:25:14;46843.34;;;-143.51;21.06
44309;BME280;30022;55.846;37.340;2022-11-20T00:27:51;46829.50;;;-143.51;21.03
44309;BME280;30022;55.846;37.340;2022-11-20T00:30:29;46847.28;;;-143.51;20.92
44309;BME280;30022;55.846;37.340;2022-11-20T00:33:07;46803.84;;;-143.51;21.33
44309;BME280;30022;55.846;37.340;2022-11-20T00:35:37;46815.69;;;-143.51;21.88
44309;BME280;30022;55.846;37.340;2022-11-20T00:38:02;46827.53;;;-143.51;21.63
44309;BME280;30022;55.846;37.340;2022-11-20T00:40:29;46823.59;;;-143.51;21.63
44309;BME280;30022;55.846;37.340;2022-11-20T00:42:55;46815.69;;;-143.51;21.48
44309;BME280;30022;55.846;37.340;2022-11-20T00:45:21;46795.94;;;-143.51;21.79
44309;BME280;30022;55.846;37.340;2022-11-20T00:47:47;46827.53;;;-143.51;22.44
44309;BME280;30022;55.846;37.340;2022-11-20T00:50:16;46815.69;;;-143.51;21.92
44309;BME280;30022;55.846;37.340;2022-11-20T00:52:49;46817.66;;;-143.51;21.80
44309;BME280;30022;55.846;37.340;2022-11-20T00:55:15;46849.25;;;-143.51;21.89
44309;BME280;30022;55.846;37.340;2022-11-20T00:57:40;46815.69;;;-143.51;21.80
44309;BME280;30022;55.846;37.340;2022-11-20T01:00:06;46815.69;;;-143.51;21.73
44309;BME280;30022;55.846;37.340;2022-11-20T01:02:32;46813.72;;;-143.51;21.96
44309;BME280;30022;55.846;37.340;2022-11-20T01:04:57;46863.09;;;-143.51;21.85
44309;BME280;30022;55.846;37.340;2022-11-20T01:07:23;46839.38;;;-143.51;22.07
44309;BME280;30022;55.846;37.340;2022-11-20T01:09:48;46863.09;;;-143.51;21.77
44309;BME280;30022;55.846;37.340;2022-11-20T01:12:14;46837.41;;;-143.51;21.74
44309;BME280;30022;55.846;37.340;2022-11-20T01:14:40;46841.34;;;-143.51;21.60
44309;BME280;30022;55.846;37.340;2022-11-20T01:17:05;46839.38;;;-143.51;21.72
44309;BME280;30022;55.846;37.340;2022-11-20T01:19:31;46837.41;;;-143.51;21.72
44309;BME280;30022;55.846;37.340;2022-11-20T01:21:56;46829.50;;;-143.51;22.15
44309;BME280;30022;55.846;37.340;2022-11-20T01:24:23;46799.88;;;-143.51;21.59
44309;BME280;30022;55.846;37.340;2022-11-20T01:26:49;46833.47;;;-143.51;21.80
44309;BME280;30022;55.846;37.340;2022-11-20T01:29:16;46833.47;;;-143.51;21.79
44309;BME280;30022;55.846;37.340;2022-11-20T01:31:42;46829.50;;;-143.51;21.68
44309;BME280;30022;55.846;37.340;2022-11-20T01:34:12;46837.41;;;-143.51;21.31
44309;BME280;30022;55.846;37.340;2022-11-20T01:36:38;46803.84;;;-143.51;21.52
44309;BME280;30022;55.846;37.340;2022-11-20T01:39:06;46853.22;;;-143.51;21.55
44309;BME280;30022;55.846;37.340;2022-11-20T01:41:32;46795.94;;;-143.51;21.63
44309;BME280;30022;55.846;37.340;2022-11-20T01:44:18;46823.59;;;-143.51;21.52
44309;BME280;30022;55.846;37.340;2022-11-20T01:49:20;46793.97;;;-143.51;21.63
44309;BME280;30022;55.846;37.340;2022-11-20T01:51:48;46821.59;;;-143.51;21.85
44309;BME280;30022;55.846;37.340;2022-11-20T01:54:17;46825.56;;;-143.51;21.94
44309;BME280;30022;55.846;37.340;2022-11-20T01:56:44;46833.47;;;-143.51;21.74
44309;BME280;30022;55.846;37.340;2022-11-20T01:59:11;46859.13;;;-143.51;21.61
44309;BME280;30022;55.846;37.340;2022-11-20T02:01:39;46859.13;;;-143.51;21.34
44309;BME280;30022;55.846;37.340;2022-11-20T02:04:05;46849.25;;;-143.51;21.65
44309;BME280;30022;55.846;37.340;2022-11-20T02:06:35;46861.09;;;-143.51;21.41
44309;BME280;30022;55.846;37.340;2022-11-20T02:09:01;46819.63;;;-143.51;21.52
44309;BME280;30022;55.846;37.340;2022-11-20T02:11:29;46855.19;;;-143.51;21.59
44309;BME280;30022;55.846;37.340;2022-11-20T02:13:55;46811.72;;;-143.51;21.47
44309;BME280;30022;55.846;37.340;2022-11-20T02:18:47;46815.69;;;-143.51;21.46
44309;BME280;30022;55.846;37.340;2022-11-20T02:24:01;46867.03;;;-143.51;22.16
44309;BME280;30022;55.846;37.340;2022-11-20T02:26:31;46855.19;;;-143.51;21.89
44309;BME280;30022;55.846;37.340;2022-11-20T02:28:58;46843.34;;;-143.51;21.81
44309;BME280;30022;55.846;37.340;2022-11-20T02:31:24;46884.81;;;-143.51;22.12
44309;BME280;30022;55.846;37.340;2022-11-20T02:33:56;46863.09;;;-143.51;21.61
44309;BME280;30022;55.846;37.340;2022-11-20T02:36:23;46851.22;;;-143.51;21.48
44309;BME280;30022;55.846;37.340;2022-11-20T02:38:51;46829.50;;;-143.51;21.88
44309;BME280;30022;55.846;37.340;2022-11-20T02:41:17;46790.00;;;-143.51;21.37
44309;BME280;30022;55.846;37.340;2022-11-20T02:43:43;46811.72;;;-143.51;21.63
44309;BME280;30022;55.846;37.340;2022-11-20T02:46:08;46790.00;;;-143.51;21.83
44309;BME280;30022;55.846;37.340;2022-11-20T02:48:34;46803.84;;;-143.51;21.63
44309;BME280;30022;55.846;37.340;2022-11-20T02:51:00;46831.47;;;-143.51;22.02
44309;BME280;30022;55.846;37.340;2022-11-20T02:53:26;46843.34;;;-143.51;21.62
44309;BME280;30022;55.846;37.340;2022-11-20T02:55:51;46847.28;;;-143.51;22.14
44309;BME280;30022;55.846;37.340;2022-11-20T02:58:17;46835.44;;;-143.51;22.00
44309;BME280;30022;55.846;37.340;2022-11-20T03:00:43;46839.38;;;-143.51;22.63
44309;BME280;30022;55.846;37.340;2022-11-20T03:03:08;46813.72;;;-143.51;21.61
44309;BME280;30022;55.846;37.340;2022-11-20T03:05:34;46833.47;;;-143.51;21.56
44309;BME280;30022;55.846;37.340;2022-11-20T03:07:59;46803.84;;;-143.51;21.72
44309;BME280;30022;55.846;37.340;2022-11-20T03:10:25;46815.69;;;-143.51;21.51
44309;BME280;30022;55.846;37.340;2022-11-20T03:12:54;46797.91;;;-143.51;21.56
44309;BME280;30022;55.846;37.340;2022-11-20T03:15:24;46845.31;;;-143.51;21.61
44309;BME280;30022;55.846;37.340;2022-11-20T03:17:52;46815.69;;;-143.51;21.93
44309;BME280;30022;55.846;37.340;2022-11-20T03:20:18;46835.44;;;-143.51;21.73
44309;BME280;30022;55.846;37.340;2022-11-20T03:22:44;46863.09;;;-143.51;21.49
44309;BME280;30022;55.846;37.340;2022-11-20T03:25:09;46847.28;;;-143.51;21.44
44309;BME280;30022;55.846;37.340;2022-11-20T03:27:35;46831.47;;;-143.51;21.28
44309;BME280;30022;55.846;37.340;2022-11-20T03:30:00;46845.31;;;-143.51;21.54
44309;BME280;30022;55.846;37.340;2022-11-20T03:32:28;46815.69;;;-143.51;21.38
44309;BME280;30022;55.846;37.340;2022-11-20T03:34:54;46839.38;;;-143.51;21.34
44309;BME280;30022;55.846;37.340;2022-11-20T03:37:19;46829.50;;;-143.51;21.36
44309;BME280;30022;55.846;37.340;2022-11-20T03:39:45;46817.66;;;-143.51;21.33
44309;BME280;30022;55.846;37.340;2022-11-20T03:42:11;46809.75;;;-143.51;21.36
44309;BME280;30022;55.846;37.340;2022-11-20T03:44:56;46780.13;;;-143.51;21.28
44309;BME280;30022;55.846;37.340;2022-11-20T03:47:22;46793.97;;;-143.51;21.50
44309;BME280;30022;55.846;37.340;2022-11-20T03:49:47;46805.81;;;-143.51;21.31
44309;BME280;30022;55.846;37.340;2022-11-20T03:52:13;46817.66;;;-143.51;21.81
44309;BME280;30022;55.846;37.340;2022-11-20T03:54:39;46861.09;;;-143.51;21.81
44309;BME280;30022;55.846;37.340;2022-11-20T03:57:04;46853.22;;;-143.51;21.20
44309;BME280;30022;55.846;37.340;2022-11-20T03:59:30;46853.22;;;-143.51;21.37
44309;BME280;30022;55.846;37.340;2022-11-20T04:01:55;46819.63;;;-143.51;21.12
44309;BME280;30022;55.846;37.340;2022-11-20T04:04:21;46851.22;;;-143.51;21.46
44309;BME280;30022;55.846;37.340;2022-11-20T04:06:47;46823.59;;;-143.51;21.46
44309;BME280;30022;55.846;37.340;2022-11-20T04:09:12;46839.38;;;-143.51;21.31
44309;BME280;30022;55.846;37.340;2022-11-20T04:11:39;46815.69;;;-143.51;21.34
44309;BME280;30022;55.846;37.340;2022-11-20T04:14:05;46869.00;;;-143.51;21.03
44309;BME280;30022;55.846;37.340;2022-11-20T04:16:33;46799.88;;;-143.51;21.04
44309;BME280;30022;55.846;37.340;2022-11-20T04:18:59;46845.31;;;-143.51;21.27
44309;BME280;30022;55.846;37.340;2022-11-20T04:21:25;46815.69;;;-143.51;20.83
44309;BME280;30022;55.846;37.340;2022-11-20T04:23:51;46847.28;;;-143.51;20.92
44309;BME280;30022;55.846;37.340;2022-11-20T04:26:18;46827.53;;;-143.51;21.03
44309;BME280;30022;55.846;37.340;2022-11-20T04:28:44;46847.28;;;-143.51;21.12
44309;BME280;30022;55.846;37.340;2022-11-20T04:31:10;46835.44;;;-143.51;21.02
44309;BME280;30022;55.846;37.340;2022-11-20T04:33:37;46807.78;;;-143.51;21.01
44309;BME280;30022;55.846;37.340;2022-11-20T04:36:03;46831.47;;;-143.51;21.12
44309;BME280;30022;55.846;37.340;2022-11-20T04:38:29;46839.38;;;-143.51;21.02
44309;BME280;30022;55.846;37.340;2022-11-20T04:41:01;46876.91;;;-143.51;20.91
44309;BME280;30022;55.846;37.340;2022-11-20T04:43:27;46876.91;;;-143.51;20.85
44309;BME280;30022;55.846;37.340;2022-11-20T04:45:54;46859.13;;;-143.51;21.04
44309;BME280;30022;55.846;37.340;2022-11-20T04:48:20;46916.41;;;-143.51;20.47
44309;BME280;30022;55.846;37.340;2022-11-20T04:50:45;46851.22;;;-143.51;20.91
44309;BME280;30022;55.846;37.340;2022-11-20T04:53:11;46859.13;;;-143.51;21.18
44309;BME280;30022;55.846;37.340;2022-11-20T04:55:37;46841.34;;;-143.51;21.12
44309;BME280;30022;55.846;37.340;2022-11-20T04:58:02;46867.03;;;-143.51;21.01
44309;BME280;30022;55.846;37.340;2022-11-20T05:00:28;46841.34;;;-143.51;20.87
44309;BME280;30022;55.846;37.340;2022-11-20T05:02:54;46859.13;;;-143.51;20.92
44309;BME280;30022;55.846;37.340;2022-11-20T05:05:20;46857.16;;;-143.51;20.79
44309;BME280;30022;55.846;37.340;2022-11-20T05:07:46;46849.25;;;-143.51;20.81
44309;BME280;30022;55.846;37.340;2022-11-20T05:10:12;46847.28;;;-143.51;20.83
44309;BME280;30022;55.846;37.340;2022-11-20T05:12:39;46874.94;;;-143.51;20.81
44309;BME280;30022;55.846;37.340;2022-11-20T05:15:05;46847.28;;;-143.51;20.62
44309;BME280;30022;55.846;37.340;2022-11-20T05:17:31;46870.97;;;-143.51;20.85
44309;BME280;30022;55.846;37.340;2022-11-20T05:19:58;46823.59;;;-143.51;20.68
44309;BME280;30022;55.846;37.340;2022-11-20T05:22:25;46853.22;;;-143.51;20.74
44309;BME280;30022;55.846;37.340;2022-11-20T05:24:51;46869.00;;;-143.51;20.80
44309;BME280;30022;55.846;37.340;2022-11-20T05:27:17;46867.03;;;-143.51;20.88
44309;BME280;30022;55.846;37.340;2022-11-20T05:29:44;46882.84;;;-143.51;20.60
44309;BME280;30022;55.846;37.340;2022-11-20T05:32:12;46845.31;;;-143.51;20.56
44309;BME280;30022;55.846;37.340;2022-11-20T05:34:39;46841.34;;;-143.51;20.85
44309;BME280;30022;55.846;37.340;2022-11-20T05:37:05;46853.22;;;-143.51;20.46
44309;BME280;30022;55.846;37.340;2022-11-20T05:39:32;46829.50;;;-143.51;20.55
44309;BME280;30022;55.846;37.340;2022-11-20T05:41:58;46839.38;;;-143.51;20.72
44309;BME280;30022;55.846;37.340;2022-11-20T05:44:43;46845.31;;;-143.51;20.49
44309;BME280;30022;55.846;37.340;2022-11-20T05:47:10;46894.69;;;-143.51;20.63
44309;BME280;30022;55.846;37.340;2022-11-20T05:49:37;46855.19;;;-143.51;20.42
44309;BME280;30022;55.846;37.340;2022-11-20T05:52:03;46851.22;;;-143.51;20.39
44309;BME280;30022;55.846;37.340;2022-11-20T05:54:32;46819.63;;;-143.51;20.63
44309;BME280;30022;55.846;37.340;2022-11-20T05:57:00;46821.59;;;-143.51;20.47
44309;BME280;30022;55.846;37.340;2022-11-20T05:59:30;46861.09;;;-143.51;20.64
44309;BME280;30022;55.846;37.340;2022-11-20T06:01:59;46869.00;;;-143.51;20.62
44309;BME280;30022;55.846;37.340;2022-11-20T06:04:25;46849.25;;;-143.51;20.40
44309;BME280;30022;55.846;37.340;2022-11-20T06:06:53;46821.59;;;-143.51;20.51
44309;BME280;30022;55.846;37.340;2022-11-20T06:09:23;46859.13;;;-143.51;20.66
44309;BME280;30022;55.846;37.340;2022-11-20T06:11:51;46855.19;;;-143.51;20.62
44309;BME280;30022;55.846;37.340;2022-11-20T06:14:20;46898.63;;;-143.51;20.64
44309;BME280;30022;55.846;37.340;2022-11-20T06:16:48;46900.59;;;-143.51;20.53
44309;BME280;30022;55.846;37.340;2022-11-20T06:19:16;46884.81;;;-143.51;20.68
44309;BME280;30022;55.846;37.340;2022-11-20T06:21:48;46886.78;;;-143.51;20.56
44309;BME280;30022;55.846;37.340;2022-11-20T06:24:17;46874.94;;;-143.51;20.60
44309;BME280;30022;55.846;37.340;2022-11-20T06:26:44;46853.22;;;-143.51;20.64
44309;BME280;30022;55.846;37.340;2022-11-20T06:29:10;46898.63;;;-143.51;20.86
44309;BME280;30022;55.846;37.340;2022-11-20T06:31:36;46853.22;;;-143.51;20.81
44309;BME280;30022;55.846;37.340;2022-11-20T06:34:04;46876.91;;;-143.51;20.73
44309;BME280;30022;55.846;37.340;2022-11-20T06:36:35;46906.53;;;-143.51;20.86
44309;BME280;30022;55.846;37.340;2022-11-20T06:39:11;46884.81;;;-143.51;20.86
44309;BME280;30022;55.846;37.340;2022-11-20T06:41:36;46896.66;;;-143.51;21.05
44309;BME280;30022;55.846;37.340;2022-11-20T06:44:04;46910.47;;;-143.51;21.20
44309;BME280;30022;55.846;37.340;2022-11-20T06:46:30;46900.59;;;-143.51;20.85
44309;BME280;30022;55.846;37.340;2022-11-20T06:48:57;46908.50;;;-143.51;20.91
44309;BME280;30022;55.846;37.340;2022-11-20T06:51:23;46918.38;;;-143.51;20.92
44309;BME280;30022;55.846;37.340;2022-11-20T06:53:49;46894.69;;;-143.51;20.85
44309;BME280;30022;55.846;37.340;2022-11-20T06:56:15;46859.13;;;-143.51;20.86
44309;BME280;30022;55.846;37.340;2022-11-20T06:58:43;46880.84;;;-143.51;20.75
44309;BME280;30022;55.846;37.340;2022-11-20T07:01:10;46890.72;;;-143.51;20.91
44309;BME280;30022;55.846;37.340;2022-11-20T07:03:37;46894.69;;;-143.51;20.76
44309;BME280;30022;55.846;37.340;2022-11-20T07:06:04;46944.06;;;-143.51;20.74
44309;BME280;30022;55.846;37.340;2022-11-20T07:08:33;46918.38;;;-143.51;20.72
44309;BME280;30022;55.846;37.340;2022-11-20T07:11:04;46957.88;;;-143.51;20.50
44309;BME280;30022;55.846;37.340;2022-11-20T07:13:32;46932.22;;;-143.51;20.54
44309;BME280;30022;55.846;37.340;2022-11-20T07:16:01;46914.44;;;-143.51;20.53
44309;BME280;30022;55.846;37.340;2022-11-20T07:18:27;46922.34;;;-143.51;20.54
44309;BME280;30022;55.846;37.340;2022-11-20T07:20:53;46926.28;;;-143.51;20.54
44309;BME280;30022;55.846;37.340;2022-11-20T07:23:19;46922.34;;;-143.51;20.54
44309;BME280;30022;55.846;37.340;2022-11-20T07:25:45;46918.38;;;-143.51;20.56
44309;BME280;30022;55.846;37.340;2022-11-20T07:28:11;46951.97;;;-143.51;20.57
44309;BME280;30022;55.846;37.340;2022-11-20T07:30:37;46965.78;;;-143.51;20.46
44309;BME280;30022;55.846;37.340;2022-11-20T07:33:03;46946.03;;;-143.51;20.32
44309;BME280;30022;55.846;37.340;2022-11-20T07:35:29;46916.41;;;-143.51;20.43
44309;BME280;30022;55.846;37.340;2022-11-20T07:37:55;46938.13;;;-143.51;20.39
44309;BME280;30022;55.846;37.340;2022-11-20T07:40:21;46953.94;;;-143.51;20.51
44309;BME280;30022;55.846;37.340;2022-11-20T07:42:50;46936.16;;;-143.51;20.45
44309;BME280;30022;55.846;37.340;2022-11-20T07:45:17;46944.06;;;-143.51;20.55
44309;BME280;30022;55.846;37.340;2022-11-20T07:47:43;46959.84;;;-143.51;20.46
44309;BME280;30022;55.846;37.340;2022-11-20T07:50:09;46949.97;;;-143.51;20.37
44309;BME280;30022;55.846;37.340;2022-11-20T07:52:34;46967.75;;;-143.51;20.54
44309;BME280;30022;55.846;37.340;2022-11-20T07:55:02;46971.72;;;-143.51;20.39
44309;BME280;30022;55.846;37.340;2022-11-20T07:57:29;46957.88;;;-143.51;20.23
44309;BME280;30022;55.846;37.340;2022-11-20T07:59:54;46957.88;;;-143.51;20.52
44309;BME280;30022;55.846;37.340;2022-11-20T08:02:20;46951.97;;;-143.51;20.36
44309;BME280;30022;55.846;37.340;2022-11-20T08:04:45;46932.22;;;-143.51;20.07
44309;BME280;30022;55.846;37.340;2022-11-20T08:07:11;46985.53;;;-143.51;20.19
44309;BME280;30022;55.846;37.340;2022-11-20T08:09:37;46965.78;;;-143.51;20.32
44309;BME280;30022;55.846;37.340;2022-11-20T08:12:02;46977.63;;;-143.51;20.53
44309;BME280;30022;55.846;37.340;2022-11-20T08:14:47;46981.59;;;-143.51;20.51
44309;BME280;30022;55.846;37.340;2022-11-20T08:17:13;46999.34;;;-143.51;20.32
44309;BME280;30022;55.846;37.340;2022-11-20T08:19:38;46981.59;;;-143.51;20.27
44309;BME280;30022;55.846;37.340;2022-11-20T08:22:04;47017.13;;;-143.51;20.53
44309;BME280;30022;55.846;37.340;2022-11-20T08:24:30;46951.97;;;-143.51;20.41
44309;BME280;30022;55.846;37.340;2022-11-20T08:26:59;46981.59;;;-143.51;20.32
44309;BME280;30022;55.846;37.340;2022-11-20T08:29:28;46997.38;;;-143.51;20.54
44309;BME280;30022;55.846;37.340;2022-11-20T08:31:54;46981.59;;;-143.51;20.31
44309;BME280;30022;55.846;37.340;2022-11-20T08:34:23;46987.50;;;-143.51;20.41
44309;BME280;30022;55.846;37.340;2022-11-20T08:36:49;46957.88;;;-143.51;20.27
44309;BME280;30022;55.846;37.340;2022-11-20T08:39:15;46965.78;;;-143.51;20.32
44309;BME280;30022;55.846;37.340;2022-11-20T08:41:40;46975.66;;;-143.51;20.48
44309;BME280;30022;55.846;37.340;2022-11-20T08:44:06;46977.63;;;-143.51;20.47
44309;BME280;30022;55.846;37.340;2022-11-20T08:46:36;46985.53;;;-143.51;20.33
44309;BME280;30022;55.846;37.340;2022-11-20T08:49:03;47001.34;;;-143.51;20.38
44309;BME280;30022;55.846;37.340;2022-11-20T08:51:29;47001.34;;;-143.51;20.29
44309;BME280;30022;55.846;37.340;2022-11-20T08:53:55;47009.22;;;-143.51;20.52
44309;BME280;30022;55.846;37.340;2022-11-20T08:56:21;46999.34;;;-143.51;20.28
44309;BME280;30022;55.846;37.340;2022-11-20T08:58:47;47001.34;;;-143.51;20.56
44309;BME280;30022;55.846;37.340;2022-11-20T09:01:12;47050.72;;;-143.51;20.30
44309;BME280;30022;55.846;37.340;2022-11-20T09:03:38;47027.00;;;-143.51;20.24
44309;BME280;30022;55.846;37.340;2022-11-20T09:06:07;47025.03;;;-143.51;20.19
44309;BME280;30022;55.846;37.340;2022-11-20T09:08:33;47005.28;;;-143.51;20.18
44309;BME280;30022;55.846;37.340;2022-11-20T09:11:00;47005.28;;;-143.51;20.27
44309;BME280;30022;55.846;37.340;2022-11-20T09:13:26;46955.91;;;-143.51;20.30
44309;BME280;30022;55.846;37.340;2022-11-20T09:15:56;46983.56;;;-143.51;20.14
44309;BME280;30022;55.846;37.340;2022-11-20T09:18:22;46995.41;;;-143.51;20.46
44309;BME280;30022;55.846;37.340;2022-11-20T09:20:50;46969.72;;;-143.51;20.33
44309;BME280;30022;55.846;37.340;2022-11-20T09:23:16;46989.47;;;-143.51;20.27
44309;BME280;30022;55.846;37.340;2022-11-20T09:25:42;46946.03;;;-143.51;20.38
44309;BME280;30022;55.846;37.340;2022-11-20T09:28:08;46977.63;;;-143.51;20.16
44309;BME280;30022;55.846;37.340;2022-11-20T09:30:34;46981.59;;;-143.51;20.26
44309;BME280;30022;55.846;37.340;2022-11-20T09:32:59;47003.31;;;-143.51;20.04
44309;BME280;30022;55.846;37.340;2022-11-20T09:35:25;46963.81;;;-143.51;20.16
44309;BME280;30022;55.846;37.340;2022-11-20T09:37:51;46963.81;;;-143.51;20.18
44309;BME280;30022;55.846;37.340;2022-11-20T09:50:26;46957.88;;;-143.51;20.46
44309;BME280;30022;55.846;37.340;2022-11-20T09:55:23;46981.59;;;-143.51;20.42
44309;BME280;30022;55.846;37.340;2022-11-20T09:57:50;46991.47;;;-143.51;20.40
44309;BME280;30022;55.846;37.340;2022-11-20T10:00:17;46957.88;;;-143.51;20.37
44309;BME280;30022;55.846;37.340;2022-11-20T10:02:59;46934.19;;;-143.51;20.29
44309;BME280;30022;55.846;37.340;2022-11-20T10:05:28;46918.38;;;-143.51;20.29
44309;BME280;30022;55.846;37.340;2022-11-20T10:08:05;46922.34;;;-143.51;20.33
44309;BME280;30022;55.846;37.340;2022-11-20T10:10:47;46938.13;;;-143.51;20.27
44309;BME280;30022;55.846;37.340;2022-11-20T10:13:38;46951.97;;;-143.51;20.36
44309;BME280;30022;55.846;37.340;2022-11-20T10:31:14;46949.97;;;-143.51;20.33
44309;BME280;30022;55.846;37.340;2022-11-20T10:33:46;46951.97;;;-143.51;20.34
44309;BME280;30022;55.846;37.340;2022-11-20T10:36:42;46940.09;;;-143.51;20.38
44309;BME280;30022;55.846;37.340;2022-11-20T10:39:31;46930.22;;;-143.51;20.29
44309;BME280;30022;55.846;37.340;2022-11-20T10:42:13;46920.34;;;-143.51;20.36
44309;BME280;30022;55.846;37.340;2022-11-20T10:44:52;46894.69;;;-143.51;20.54
44309;BME280;30022;55.846;37.340;2022-11-20T10:47:33;46888.75;;;-143.51;20.51
44309;BME280;30022;55.846;37.340;2022-11-20T10:50:05;46888.75;;;-143.51;20.78
44309;BME280;30022;55.846;37.340;2022-11-20T10:52:54;46859.13;;;-143.51;20.74
44309;BME280;30022;55.846;37.340;2022-11-20T10:55:31;46878.88;;;-143.51;20.62
44309;BME280;30022;55.846;37.340;2022-11-20T11:00:47;46884.81;;;-143.51;20.59
44309;BME280;30022;55.846;37.340;2022-11-20T11:03:27;46880.84;;;-143.51;20.57
44309;BME280;30022;55.846;37.340;2022-11-20T11:06:00;46882.84;;;-143.51;20.51
44309;BME280;30022;55.846;37.340;2022-11-20T11:08:32;46863.09;;;-143.51;20.47
44309;BME280;30022;55.846;37.340;2022-11-20T11:11:26;46855.19;;;-143.51;20.48
44309;BME280;30022;55.846;37.340;2022-11-20T11:13:53;46870.97;;;-143.51;20.67
44309;BME280;30022;55.846;37.340;2022-11-20T11:16:23;46857.16;;;-143.51;20.58
44309;BME280;30022;55.846;37.340;2022-11-20T11:18:52;46859.13;;;-143.51;20.62
44309;BME280;30022;55.846;37.340;2022-11-20T11:21:31;46843.34;;;-143.51;20.57
44309;BME280;30022;55.846;37.340;2022-11-20T11:24:02;46843.34;;;-143.51;20.56
44309;BME280;30022;55.846;37.340;2022-11-20T11:26:35;46863.09;;;-143.51;20.54
44309;BME280;30022;55.846;37.340;2022-11-20T11:29:04;46861.09;;;-143.51;20.64
44309;BME280;30022;55.846;37.340;2022-11-20T11:31:34;46815.69;;;-143.51;20.78
44309;BME280;30022;55.846;37.340;2022-11-20T11:34:11;46827.53;;;-143.51;20.61
44309;BME280;30022;55.846;37.340;2022-11-20T11:37:19;46882.84;;;-143.51;20.53
44309;BME280;30022;55.846;37.340;2022-11-20T11:39:41;46855.19;;;-143.51;20.43
44309;BME280;30022;55.846;37.340;2022-11-20T11:42:10;46855.19;;;-143.51;20.47
44309;BME280;30022;55.846;37.340;2022-11-20T11:44:46;46886.78;;;-143.51;20.50
44309;BME280;30022;55.846;37.340;2022-11-20T11:47:32;46900.59;;;-143.51;20.37
44309;BME280;30022;55.846;37.340;2022-11-20T11:58:20;46874.94;;;-143.51;20.30
44309;BME280;30022;55.846;37.340;2022-11-20T12:01:12;46867.03;;;-143.51;20.41
44309;BME280;30022;55.846;37.340;2022-11-20T12:03:37;46922.34;;;-143.51;20.28
44309;BME280;30022;55.846;37.340;2022-11-20T12:06:14;46886.78;;;-143.51;20.20
44309;BME280;30022;55.846;37.340;2022-11-20T12:11:13;46894.69;;;-143.51;20.35
44309;BME280;30022;55.846;37.340;2022-11-20T12:16:09;46902.59;;;-143.51;20.32
44309;BME280;30022;55.846;37.340;2022-11-20T12:18:36;46878.88;;;-143.51;20.37
44309;BME280;30022;55.846;37.340;2022-11-20T12:23:42;46853.22;;;-143.51;20.53
44309;BME280;30022;55.846;37.340;2022-11-20T12:31:45;46845.31;;;-143.51;20.25
44309;BME280;30022;55.846;37.340;2022-11-20T12:39:40;46882.84;;;-143.51;20.31
44309;BME280;30022;55.846;37.340;2022-11-20T13:04:00;46874.94;;;-143.51;20.19
44309;BME280;30022;55.846;37.340;2022-11-20T13:06:32;46857.16;;;-143.51;20.32
44309;BME280;30022;55.846;37.340;2022-11-20T13:08:59;46898.63;;;-143.51;20.42
44309;BME280;30022;55.846;37.340;2022-11-20T13:11:34;46843.34;;;-143.51;20.48
44309;BME280;30022;55.846;37.340;2022-11-20T13:16:50;46845.31;;;-143.51;20.25
44309;BME280;30022;55.846;37.340;2022-11-20T13:19:18;46869.00;;;-143.51;20.37
44309;BME280;30022;55.846;37.340;2022-11-20T13:21:45;46867.03;;;-143.51;20.27
44309;BME280;30022;55.846;37.340;2022-11-20T13:26:44;46870.97;;;-143.51;20.35
44309;BME280;30022;55.846;37.340;2022-11-20T13:29:12;46906.53;;;-143.51;20.42
44309;BME280;30022;55.846;37.340;2022-11-20T13:31:43;46898.63;;;-143.51;20.17
44309;BME280;30022;55.846;37.340;2022-11-20T13:34:09;46872.97;;;-143.51;20.25
44309;BME280;30022;55.846;37.340;2022-11-20T13:36:37;46874.94;;;-143.51;20.27
44309;BME280;30022;55.846;37.340;2022-11-20T13:39:23;46870.97;;;-143.51;20.29
44309;BME280;30022;55.846;37.340;2022-11-20T13:41:53;46906.53;;;-143.51;20.27
44309;BME280;30022;55.846;37.340;2022-11-20T13:44:24;46906.53;;;-143.51;20.21
44309;BME280;30022;55.846;37.340;2022-11-20T13:46:51;46880.84;;;-143.51;20.28
44309;BME280;30022;55.846;37.340;2022-11-20T13:54:59;46869.00;;;-143.51;20.31
44309;BME280;30022;55.846;37.340;2022-11-20T14:02:36;46851.22;;;-143.51;20.24
44309;BME280;30022;55.846;37.340;2022-11-20T14:05:02;46865.06;;;-143.51;20.20
44309;BME280;30022;55.846;37.340;2022-11-20T14:07:36;46857.16;;;-143.51;20.07
44309;BME280;30022;55.846;37.340;2022-11-20T14:10:04;46835.44;;;-143.51;20.23
44309;BME280;30022;55.846;37.340;2022-11-20T14:12:32;46857.16;;;-143.51;20.27
44309;BME280;30022;55.846;37.340;2022-11-20T14:14:58;46813.72;;;-143.51;20.09
44309;BME280;30022;55.846;37.340;2022-11-20T14:17:34;46863.09;;;-143.51;20.29
44309;BME280;30022;55.846;37.340;2022-11-20T14:20:02;46855.19;;;-143.51;20.33